KOKK/OKK METAR and TAF weather

Enter ICAO airport designator
Station Type Date Time Source
KOKK METAR 2021/01/17 18:56 UTC NOAA

KOKK 171856Z AUTO 28011KT 10SM OVC010 M01/M02 A2970 RMK AO2 UPB1757E32SNE1757 SLP067 P0000 T10061017 FZRANO


Station Type Date Time Source
KOKK Decoded METAR 2021/01/17 18:56 UTC NOAA

Kokomo, Kokomo Municipal Airport, IN, United States (KOKK) 40-32N 086-04W
Jan 17, 2021 - 01:56 PM EST / 2021.01.17 1856 UTC
Wind: from the W (280 degrees) at 13 MPH (11 KT):0
Visibility: 10 mile(s):0
Sky conditions: overcast
Precipitation last hour: A trace
Temperature: 30.9 F (-0.6 C)
Windchill: 21 F (-6 C):1
Dew Point: 28.9 F (-1.7 C)
Relative Humidity: 92%
Pressure (altimeter): 29.7 in. Hg (1005 hPa)
ob: KOKK 171856Z AUTO 28011KT 10SM OVC010 M01/M02 A2970 RMK AO2 UPB1757E32SNE1757 SLP067 P0000 T10061017 FZRANO
cycle: 19

Station Type Date Time Source
KOKK TAF UTC NOAA

Error!

Example: see airport list